sensor_id;sensor_type;location;lat;lon;timestamp;temperature;humidity
7174;DHT22;3628;48.654;8.932;2022-12-18T00:01:56;-11.80;99.90
7174;DHT22;3628;48.654;8.932;2022-12-18T00:04:23;-11.80;99.90
7174;DHT22;3628;48.654;8.932;2022-12-18T00:06:49;-11.80;99.90
7174;DHT22;3628;48.654;8.932;2022-12-18T00:09:15;-11.80;99.90
7174;DHT22;3628;48.654;8.932;2022-12-18T00:11:41;-11.80;99.90
7174;DHT22;3628;48.654;8.932;2022-12-18T00:14:08;-11.80;99.90
7174;DHT22;3628;48.654;8.932;2022-12-18T00:16:34;-11.80;99.90
7174;DHT22;3628;48.654;8.932;2022-12-18T00:19:02;-11.80;99.90
7174;DHT22;3628;48.654;8.932;2022-12-18T00:21:29;-11.80;99.90
7174;DHT22;3628;48.654;8.932;2022-12-18T00:23:55;-11.80;99.90
7174;DHT22;3628;48.654;8.932;2022-12-18T00:26:28;-11.90;99.90
7174;DHT22;3628;48.654;8.932;2022-12-18T00:28:55;-11.90;99.90
7174;DHT22;3628;48.654;8.932;2022-12-18T00:31:24;-11.90;99.90
7174;DHT22;3628;48.654;8.932;2022-12-18T00:33:50;-11.90;99.90
7174;DHT22;3628;48.654;8.932;2022-12-18T00:36:21;-11.90;99.90
7174;DHT22;3628;48.654;8.932;2022-12-18T00:38:47;-11.90;99.90
7174;DHT22;3628;48.654;8.932;2022-12-18T00:41:15;-11.90;99.90
7174;DHT22;3628;48.654;8.932;2022-12-18T00:44:00;-11.90;99.90
7174;DHT22;3628;48.654;8.932;2022-12-18T00:46:25;-11.90;99.90
7174;DHT22;3628;48.654;8.932;2022-12-18T00:48:51;-11.90;99.90
7174;DHT22;3628;48.654;8.932;2022-12-18T00:51:16;-11.90;99.90
7174;DHT22;3628;48.654;8.932;2022-12-18T00:53:42;-11.90;99.90
7174;DHT22;3628;48.654;8.932;2022-12-18T00:56:07;-11.90;99.90
7174;DHT22;3628;48.654;8.932;2022-12-18T00:58:36;-11.90;99.90
7174;DHT22;3628;48.654;8.932;2022-12-18T01:01:04;-11.90;99.90
7174;DHT22;3628;48.654;8.932;2022-12-18T01:03:29;-11.90;99.90
7174;DHT22;3628;48.654;8.932;2022-12-18T01:05:56;-11.90;99.90
7174;DHT22;3628;48.654;8.932;2022-12-18T01:08:21;-11.90;99.90
7174;DHT22;3628;48.654;8.932;2022-12-18T01:10:47;-12.00;99.90
7174;DHT22;3628;48.654;8.932;2022-12-18T01:13:13;-12.00;99.90
7174;DHT22;3628;48.654;8.932;2022-12-18T01:15:38;-12.10;99.90
7174;DHT22;3628;48.654;8.932;2022-12-18T01:18:04;-12.10;99.90
7174;DHT22;3628;48.654;8.932;2022-12-18T01:20:29;-12.10;99.90
7174;DHT22;3628;48.654;8.932;2022-12-18T01:22:55;-12.10;99.90
7174;DHT22;3628;48.654;8.932;2022-12-18T01:25:20;-12.10;99.90
7174;DHT22;3628;48.654;8.932;2022-12-18T01:27:46;-12.10;99.90
7174;DHT22;3628;48.654;8.932;2022-12-18T01:30:12;-12.20;99.90
7174;DHT22;3628;48.654;8.932;2022-12-18T01:32:37;-12.20;99.90
7174;DHT22;3628;48.654;8.932;2022-12-18T01:35:03;-12.20;99.90
7174;DHT22;3628;48.654;8.932;2022-12-18T01:37:29;-12.20;99.90
7174;DHT22;3628;48.654;8.932;2022-12-18T01:39:54;-12.10;99.90
7174;DHT22;3628;48.654;8.932;2022-12-18T01:42:21;-12.10;99.90
7174;DHT22;3628;48.654;8.932;2022-12-18T01:50:54;-11.90;99.90
7174;DHT22;3628;48.654;8.932;2022-12-18T01:53:07;-11.80;99.90
7174;DHT22;3628;48.654;8.932;2022-12-18T01:55:42;-11.80;99.90
7174;DHT22;3628;48.654;8.932;2022-12-18T01:58:08;-11.70;99.90
7174;DHT22;3628;48.654;8.932;2022-12-18T02:00:33;-11.70;99.90
7174;DHT22;3628;48.654;8.932;2022-12-18T02:02:59;-11.60;99.90
7174;DHT22;3628;48.654;8.932;2022-12-18T02:08:36;-11.60;99.90
7174;DHT22;3628;48.654;8.932;2022-12-18T02:11:11;-11.60;99.90
7174;DHT22;3628;48.654;8.932;2022-12-18T02:16:24;-11.60;99.90
7174;DHT22;3628;48.654;8.932;2022-12-18T02:18:58;-11.60;99.90
7174;DHT22;3628;48.654;8.932;2022-12-18T02:21:45;-11.60;99.90
7174;DHT22;3628;48.654;8.932;2022-12-18T02:24:23;-11.60;99.90
7174;DHT22;3628;48.654;8.932;2022-12-18T02:26:59;-11.70;99.90
7174;DHT22;3628;48.654;8.932;2022-12-18T02:29:29;-11.70;99.90
7174;DHT22;3628;48.654;8.932;2022-12-18T02:31:59;-11.70;99.90
7174;DHT22;3628;48.654;8.932;2022-12-18T02:34:30;-11.70;99.90
7174;DHT22;3628;48.654;8.932;2022-12-18T02:36:57;-11.70;99.90
7174;DHT22;3628;48.654;8.932;2022-12-18T02:39:25;-11.70;99.90
7174;DHT22;3628;48.654;8.932;2022-12-18T02:41:52;-11.60;99.90
7174;DHT22;3628;48.654;8.932;2022-12-18T02:44:17;-11.50;99.90
7174;DHT22;3628;48.654;8.932;2022-12-18T02:46:50;-11.40;99.90
7174;DHT22;3628;48.654;8.932;2022-12-18T02:57:05;-10.90;99.90
7174;DHT22;3628;48.654;8.932;2022-12-18T02:59:40;-10.80;99.90
7174;DHT22;3628;48.654;8.932;2022-12-18T03:02:28;-10.70;99.90
7174;DHT22;3628;48.654;8.932;2022-12-18T03:07:41;-10.50;99.90
7174;DHT22;3628;48.654;8.932;2022-12-18T03:10:10;-10.40;99.90
7174;DHT22;3628;48.654;8.932;2022-12-18T03:12:40;-10.40;99.90
7174;DHT22;3628;48.654;8.932;2022-12-18T03:15:14;-10.40;99.90
7174;DHT22;3628;48.654;8.932;2022-12-18T03:17:45;-10.30;99.90
7174;DHT22;3628;48.654;8.932;2022-12-18T03:20:18;-10.20;99.90
7174;DHT22;3628;48.654;8.932;2022-12-18T03:22:46;-10.10;99.90
7174;DHT22;3628;48.654;8.932;2022-12-18T03:25:16;-10.10;99.90
7174;DHT22;3628;48.654;8.932;2022-12-18T03:27:47;-10.00;99.90
7174;DHT22;3628;48.654;8.932;2022-12-18T03:30:15;-10.00;99.90
7174;DHT22;3628;48.654;8.932;2022-12-18T03:33:07;-9.90;99.90
7174;DHT22;3628;48.654;8.932;2022-12-18T03:35:41;-9.80;99.90
7174;DHT22;3628;48.654;8.932;2022-12-18T03:38:08;-9.80;99.90
7174;DHT22;3628;48.654;8.932;2022-12-18T03:43:17;-9.70;99.90
7174;DHT22;3628;48.654;8.932;2022-12-18T03:45:52;-9.60;99.90
7174;DHT22;3628;48.654;8.932;2022-12-18T03:48:30;-9.50;99.90
7174;DHT22;3628;48.654;8.932;2022-12-18T03:51:06;-9.40;99.90
7174;DHT22;3628;48.654;8.932;2022-12-18T03:53:45;-9.30;99.90
7174;DHT22;3628;48.654;8.932;2022-12-18T03:56:14;-9.20;99.90
7174;DHT22;3628;48.654;8.932;2022-12-18T03:58:42;-9.20;99.90
7174;DHT22;3628;48.654;8.932;2022-12-18T04:01:11;-9.10;99.90
7174;DHT22;3628;48.654;8.932;2022-12-18T04:03:39;-9.00;99.90
7174;DHT22;3628;48.654;8.932;2022-12-18T04:06:06;-8.90;99.90
7174;DHT22;3628;48.654;8.932;2022-12-18T04:08:32;-8.70;99.90
7174;DHT22;3628;48.654;8.932;2022-12-18T04:11:00;-8.60;99.90
7174;DHT22;3628;48.654;8.932;2022-12-18T04:13:32;-8.40;99.90
7174;DHT22;3628;48.654;8.932;2022-12-18T04:15:58;-8.30;99.90
7174;DHT22;3628;48.654;8.932;2022-12-18T04:18:24;-8.20;99.90
7174;DHT22;3628;48.654;8.932;2022-12-18T04:20:49;-8.10;99.90
7174;DHT22;3628;48.654;8.932;2022-12-18T04:23:15;-8.00;99.90
7174;DHT22;3628;48.654;8.932;2022-12-18T04:25:40;-7.90;99.90
7174;DHT22;3628;48.654;8.932;2022-12-18T04:28:06;-7.80;99.90
7174;DHT22;3628;48.654;8.932;2022-12-18T04:30:32;-7.80;99.90
7174;DHT22;3628;48.654;8.932;2022-12-18T04:32:57;-7.60;99.90
7174;DHT22;3628;48.654;8.932;2022-12-18T04:35:23;-7.60;99.90
7174;DHT22;3628;48.654;8.932;2022-12-18T04:37:48;-7.50;99.90
7174;DHT22;3628;48.654;8.932;2022-12-18T04:40:14;-7.40;99.90
7174;DHT22;3628;48.654;8.932;2022-12-18T04:42:40;-7.40;99.90
7174;DHT22;3628;48.654;8.932;2022-12-18T04:45:07;-7.30;99.90
7174;DHT22;3628;48.654;8.932;2022-12-18T04:47:32;-7.20;99.90
7174;DHT22;3628;48.654;8.932;2022-12-18T04:49:58;-7.20;99.90
7174;DHT22;3628;48.654;8.932;2022-12-18T04:52:24;-7.20;99.90
7174;DHT22;3628;48.654;8.932;2022-12-18T04:54:49;-7.10;99.90
7174;DHT22;3628;48.654;8.932;2022-12-18T04:57:15;-7.10;99.90
7174;DHT22;3628;48.654;8.932;2022-12-18T04:59:40;-7.00;99.90
7174;DHT22;3628;48.654;8.932;2022-12-18T05:02:06;-7.00;99.90
7174;DHT22;3628;48.654;8.932;2022-12-18T05:04:31;-6.90;99.90
7174;DHT22;3628;48.654;8.932;2022-12-18T05:06:57;-6.90;99.90
7174;DHT22;3628;48.654;8.932;2022-12-18T05:09:23;-6.80;99.90
7174;DHT22;3628;48.654;8.932;2022-12-18T05:11:48;-6.70;99.90
7174;DHT22;3628;48.654;8.932;2022-12-18T05:14:14;-6.70;99.90
7174;DHT22;3628;48.654;8.932;2022-12-18T05:16:39;-6.60;99.90
7174;DHT22;3628;48.654;8.932;2022-12-18T05:19:05;-6.70;99.90
7174;DHT22;3628;48.654;8.932;2022-12-18T05:21:30;-6.60;99.90
7174;DHT22;3628;48.654;8.932;2022-12-18T05:23:56;-6.60;99.90
7174;DHT22;3628;48.654;8.932;2022-12-18T05:26:21;-6.60;99.90
7174;DHT22;3628;48.654;8.932;2022-12-18T05:28:47;-6.60;99.90
7174;DHT22;3628;48.654;8.932;2022-12-18T05:31:13;-6.60;99.90
7174;DHT22;3628;48.654;8.932;2022-12-18T05:33:39;-6.60;99.90
7174;DHT22;3628;48.654;8.932;2022-12-18T05:36:06;-6.70;99.90
7174;DHT22;3628;48.654;8.932;2022-12-18T05:38:34;-6.70;99.90
7174;DHT22;3628;48.654;8.932;2022-12-18T05:41:00;-6.80;99.90
7174;DHT22;3628;48.654;8.932;2022-12-18T05:43:26;-6.90;99.90
7174;DHT22;3628;48.654;8.932;2022-12-18T05:45:52;-7.00;99.90
7174;DHT22;3628;48.654;8.932;2022-12-18T05:48:19;-7.10;99.90
7174;DHT22;3628;48.654;8.932;2022-12-18T05:50:46;-7.30;99.90
7174;DHT22;3628;48.654;8.932;2022-12-18T05:53:14;-7.40;99.90
7174;DHT22;3628;48.654;8.932;2022-12-18T05:55:41;-7.60;99.90
7174;DHT22;3628;48.654;8.932;2022-12-18T05:58:09;-7.80;99.90
7174;DHT22;3628;48.654;8.932;2022-12-18T06:00:37;-7.90;99.90
7174;DHT22;3628;48.654;8.932;2022-12-18T06:03:07;-8.10;99.90
7174;DHT22;3628;48.654;8.932;2022-12-18T06:05:38;-8.20;99.90
7174;DHT22;3628;48.654;8.932;2022-12-18T06:08:04;-8.30;99.90
7174;DHT22;3628;48.654;8.932;2022-12-18T06:10:30;-8.40;99.90
7174;DHT22;3628;48.654;8.932;2022-12-18T06:12:56;-8.50;99.90
7174;DHT22;3628;48.654;8.932;2022-12-18T06:15:21;-8.50;99.90
7174;DHT22;3628;48.654;8.932;2022-12-18T06:17:47;-8.50;99.90
7174;DHT22;3628;48.654;8.932;2022-12-18T06:20:12;-8.50;99.90
7174;DHT22;3628;48.654;8.932;2022-12-18T06:22:38;-8.50;99.90
7174;DHT22;3628;48.654;8.932;2022-12-18T06:25:04;-8.50;99.90
7174;DHT22;3628;48.654;8.932;2022-12-18T06:27:31;-8.50;99.90
7174;DHT22;3628;48.654;8.932;2022-12-18T06:29:59;-8.60;99.90
7174;DHT22;3628;48.654;8.932;2022-12-18T06:32:24;-8.60;99.90
7174;DHT22;3628;48.654;8.932;2022-12-18T06:34:50;-8.60;99.90
7174;DHT22;3628;48.654;8.932;2022-12-18T06:37:15;-8.60;99.90
7174;DHT22;3628;48.654;8.932;2022-12-18T06:39:41;-8.70;99.90
7174;DHT22;3628;48.654;8.932;2022-12-18T06:42:06;-8.70;99.90
7174;DHT22;3628;48.654;8.932;2022-12-18T06:44:32;-8.90;99.90
7174;DHT22;3628;48.654;8.932;2022-12-18T06:46:57;-9.00;99.90
7174;DHT22;3628;48.654;8.932;2022-12-18T06:49:23;-9.20;99.90
7174;DHT22;3628;48.654;8.932;2022-12-18T06:51:48;-9.30;99.90
7174;DHT22;3628;48.654;8.932;2022-12-18T06:54:14;-9.40;99.90
7174;DHT22;3628;48.654;8.932;2022-12-18T06:56:39;-9.60;99.90
7174;DHT22;3628;48.654;8.932;2022-12-18T06:59:05;-9.60;99.90
7174;DHT22;3628;48.654;8.932;2022-12-18T07:01:30;-9.70;99.90
7174;DHT22;3628;48.654;8.932;2022-12-18T07:03:57;-9.80;99.90
7174;DHT22;3628;48.654;8.932;2022-12-18T07:06:24;-10.00;99.90
7174;DHT22;3628;48.654;8.932;2022-12-18T07:08:51;-9.90;99.90
7174;DHT22;3628;48.654;8.932;2022-12-18T07:11:17;-9.90;99.90
7174;DHT22;3628;48.654;8.932;2022-12-18T07:13:43;-9.90;99.90
7174;DHT22;3628;48.654;8.932;2022-12-18T07:16:18;-9.90;99.90
7174;DHT22;3628;48.654;8.932;2022-12-18T07:18:44;-9.90;99.90
7174;DHT22;3628;48.654;8.932;2022-12-18T07:21:13;-10.00;99.90
7174;DHT22;3628;48.654;8.932;2022-12-18T07:23:39;-10.00;99.90
7174;DHT22;3628;48.654;8.932;2022-12-18T07:26:07;-9.90;99.90
7174;DHT22;3628;48.654;8.932;2022-12-18T07:28:34;-10.00;99.90
7174;DHT22;3628;48.654;8.932;2022-12-18T07:31:07;-10.10;99.90
7174;DHT22;3628;48.654;8.932;2022-12-18T07:33:34;-10.10;99.90
7174;DHT22;3628;48.654;8.932;2022-12-18T07:36:00;-10.10;99.90
7174;DHT22;3628;48.654;8.932;2022-12-18T07:38:26;-10.10;99.90
7174;DHT22;3628;48.654;8.932;2022-12-18T07:40:52;-10.20;99.90
7174;DHT22;3628;48.654;8.932;2022-12-18T07:43:17;-10.30;99.90
7174;DHT22;3628;48.654;8.932;2022-12-18T07:45:43;-10.30;99.90
7174;DHT22;3628;48.654;8.932;2022-12-18T07:48:09;-10.30;99.90
7174;DHT22;3628;48.654;8.932;2022-12-18T07:50:35;-10.30;99.90
7174;DHT22;3628;48.654;8.932;2022-12-18T07:53:00;-10.30;99.90
7174;DHT22;3628;48.654;8.932;2022-12-18T07:55:29;-10.20;99.90
7174;DHT22;3628;48.654;8.932;2022-12-18T07:57:55;-10.20;99.90
7174;DHT22;3628;48.654;8.932;2022-12-18T08:00:20;-10.20;99.90
7174;DHT22;3628;48.654;8.932;2022-12-18T08:02:46;-10.10;99.90
7174;DHT22;3628;48.654;8.932;2022-12-18T08:05:11;-10.00;99.90
7174;DHT22;3628;48.654;8.932;2022-12-18T08:07:37;-10.00;99.90
7174;DHT22;3628;48.654;8.932;2022-12-18T08:10:03;-10.00;99.90
7174;DHT22;3628;48.654;8.932;2022-12-18T08:12:28;-9.90;99.90
7174;DHT22;3628;48.654;8.932;2022-12-18T08:14:54;-9.80;99.90
7174;DHT22;3628;48.654;8.932;2022-12-18T08:17:20;-9.80;99.90
7174;DHT22;3628;48.654;8.932;2022-12-18T08:19:45;-9.80;99.90
7174;DHT22;3628;48.654;8.932;2022-12-18T08:22:11;-9.80;99.90
7174;DHT22;3628;48.654;8.932;2022-12-18T08:24:36;-9.70;99.90
7174;DHT22;3628;48.654;8.932;2022-12-18T08:27:02;-9.60;99.90
7174;DHT22;3628;48.654;8.932;2022-12-18T08:29:27;-9.60;99.90
7174;DHT22;3628;48.654;8.932;2022-12-18T08:31:53;-9.50;99.90
7174;DHT22;3628;48.654;8.932;2022-12-18T08:34:18;-9.50;99.90
7174;DHT22;3628;48.654;8.932;2022-12-18T08:36:44;-9.50;99.90
7174;DHT22;3628;48.654;8.932;2022-12-18T08:39:09;-9.50;99.90
7174;DHT22;3628;48.654;8.932;2022-12-18T08:41:35;-9.40;99.90
7174;DHT22;3628;48.654;8.932;2022-12-18T08:44:01;-9.40;99.90
7174;DHT22;3628;48.654;8.932;2022-12-18T08:46:45;-9.40;99.90
7174;DHT22;3628;48.654;8.932;2022-12-18T08:49:11;-9.20;99.90
7174;DHT22;3628;48.654;8.932;2022-12-18T08:51:37;-9.20;99.90
7174;DHT22;3628;48.654;8.932;2022-12-18T08:54:03;-9.20;99.90
7174;DHT22;3628;48.654;8.932;2022-12-18T08:56:29;-9.10;99.90
7174;DHT22;3628;48.654;8.932;2022-12-18T08:58:55;-9.00;99.90
7174;DHT22;3628;48.654;8.932;2022-12-18T09:01:21;-8.80;99.90
7174;DHT22;3628;48.654;8.932;2022-12-18T09:03:48;-8.70;99.90
7174;DHT22;3628;48.654;8.932;2022-12-18T09:06:16;-8.50;99.90
7174;DHT22;3628;48.654;8.932;2022-12-18T09:08:43;-8.30;99.90
7174;DHT22;3628;48.654;8.932;2022-12-18T09:11:24;-8.20;99.90
7174;DHT22;3628;48.654;8.932;2022-12-18T09:13:50;-8.00;99.90
7174;DHT22;3628;48.654;8.932;2022-12-18T09:16:16;-7.80;99.90
7174;DHT22;3628;48.654;8.932;2022-12-18T09:18:42;-7.50;99.90
7174;DHT22;3628;48.654;8.932;2022-12-18T09:21:13;-7.30;99.90
7174;DHT22;3628;48.654;8.932;2022-12-18T09:23:39;-7.20;99.90
7174;DHT22;3628;48.654;8.932;2022-12-18T09:26:04;-7.10;99.90
7174;DHT22;3628;48.654;8.932;2022-12-18T09:28:30;-7.00;99.90
7174;DHT22;3628;48.654;8.932;2022-12-18T09:30:55;-6.90;99.90
7174;DHT22;3628;48.654;8.932;2022-12-18T09:33:21;-6.80;99.90
7174;DHT22;3628;48.654;8.932;2022-12-18T09:35:46;-6.70;99.90
7174;DHT22;3628;48.654;8.932;2022-12-18T09:38:18;-6.60;99.90
7174;DHT22;3628;48.654;8.932;2022-12-18T09:40:48;-6.40;99.90
7174;DHT22;3628;48.654;8.932;2022-12-18T09:43:23;-6.40;99.90
7174;DHT22;3628;48.654;8.932;2022-12-18T09:45:55;-6.30;99.90
7174;DHT22;3628;48.654;8.932;2022-12-18T09:48:26;-6.20;99.90
7174;DHT22;3628;48.654;8.932;2022-12-18T09:50:57;-6.10;99.90
7174;DHT22;3628;48.654;8.932;2022-12-18T09:53:28;-6.00;99.90
7174;DHT22;3628;48.654;8.932;2022-12-18T09:55:56;-5.90;99.90
7174;DHT22;3628;48.654;8.932;2022-12-18T10:00:57;-5.70;99.90
7174;DHT22;3628;48.654;8.932;2022-12-18T10:03:22;-5.70;99.90
7174;DHT22;3628;48.654;8.932;2022-12-18T10:06:20;-5.50;99.90
7174;DHT22;3628;48.654;8.932;2022-12-18T10:08:55;-5.40;99.90
7174;DHT22;3628;48.654;8.932;2022-12-18T10:14:35;-5.30;99.90
7174;DHT22;3628;48.654;8.932;2022-12-18T10:17:26;-5.40;99.90
7174;DHT22;3628;48.654;8.932;2022-12-18T10:20:02;-5.50;99.90
7174;DHT22;3628;48.654;8.932;2022-12-18T10:22:36;-5.40;99.90
7174;DHT22;3628;48.654;8.932;2022-12-18T10:25:40;-5.30;99.90
7174;DHT22;3628;48.654;8.932;2022-12-18T10:28:17;-5.20;99.90
7174;DHT22;3628;48.654;8.932;2022-12-18T10:30:44;-5.10;99.90
7174;DHT22;3628;48.654;8.932;2022-12-18T10:33:19;-5.10;99.90
7174;DHT22;3628;48.654;8.932;2022-12-18T10:35:45;-4.90;99.90
7174;DHT22;3628;48.654;8.932;2022-12-18T10:41:23;-4.80;99.90
7174;DHT22;3628;48.654;8.932;2022-12-18T10:44:21;-4.60;99.90
7174;DHT22;3628;48.654;8.932;2022-12-18T10:46:50;-4.30;99.90
7174;DHT22;3628;48.654;8.932;2022-12-18T10:49:32;-4.10;99.90
7174;DHT22;3628;48.654;8.932;2022-12-18T10:52:25;-4.00;99.90
7174;DHT22;3628;48.654;8.932;2022-12-18T10:55:02;-3.80;99.90
7174;DHT22;3628;48.654;8.932;2022-12-18T10:57:39;-3.60;99.90
7174;DHT22;3628;48.654;8.932;2022-12-18T11:02:49;-3.30;99.90
7174;DHT22;3628;48.654;8.932;2022-12-18T11:05:30;-3.30;99.90
7174;DHT22;3628;48.654;8.932;2022-12-18T11:07:56;-3.10;99.90
7174;DHT22;3628;48.654;8.932;2022-12-18T11:10:32;-3.00;99.90
7174;DHT22;3628;48.654;8.932;2022-12-18T11:15:43;-2.70;99.90
7174;DHT22;3628;48.654;8.932;2022-12-18T11:18:30;-2.60;99.90
7174;DHT22;3628;48.654;8.932;2022-12-18T11:20:59;-2.40;99.90
7174;DHT22;3628;48.654;8.932;2022-12-18T11:23:27;-2.30;99.90
7174;DHT22;3628;48.654;8.932;2022-12-18T11:25:58;-2.20;99.90
7174;DHT22;3628;48.654;8.932;2022-12-18T11:28:51;-2.00;99.90
7174;DHT22;3628;48.654;8.932;2022-12-18T11:34:11;-1.80;99.90
7174;DHT22;3628;48.654;8.932;2022-12-18T11:36:43;-1.70;99.90
7174;DHT22;3628;48.654;8.932;2022-12-18T11:39:18;-1.70;99.90
7174;DHT22;3628;48.654;8.932;2022-12-18T11:41:54;-1.60;99.90
7174;DHT22;3628;48.654;8.932;2022-12-18T11:44:59;-1.50;99.90
7174;DHT22;3628;48.654;8.932;2022-12-18T11:47:38;-1.40;99.90
7174;DHT22;3628;48.654;8.932;2022-12-18T11:50:58;-1.30;99.90
7174;DHT22;3628;48.654;8.932;2022-12-18T11:52:58;-1.20;99.90
7174;DHT22;3628;48.654;8.932;2022-12-18T11:56:00;-1.10;99.90
7174;DHT22;3628;48.654;8.932;2022-12-18T11:58:34;-1.00;99.90
7174;DHT22;3628;48.654;8.932;2022-12-18T12:15:06;-0.50;99.90
7174;DHT22;3628;48.654;8.932;2022-12-18T12:20:42;-0.40;99.90
7174;DHT22;3628;48.654;8.932;2022-12-18T12:23:36;-0.30;99.90
7174;DHT22;3628;48.654;8.932;2022-12-18T12:26:11;-0.20;99.90
7174;DHT22;3628;48.654;8.932;2022-12-18T12:31:33;-0.10;99.90
7174;DHT22;3628;48.654;8.932;2022-12-18T12:39:34;0.10;99.90
7174;DHT22;3628;48.654;8.932;2022-12-18T12:42:04;0.10;99.90
7174;DHT22;3628;48.654;8.932;2022-12-18T12:44:55;0.20;99.90
7174;DHT22;3628;48.654;8.932;2022-12-18T12:47:30;0.20;99.90
7174;DHT22;3628;48.654;8.932;2022-12-18T12:49:59;0.20;99.90
7174;DHT22;3628;48.654;8.932;2022-12-18T12:54:54;0.10;99.90
7174;DHT22;3628;48.654;8.932;2022-12-18T12:57:39;0.10;99.90
7174;DHT22;3628;48.654;8.932;2022-12-18T13:00:14;0.10;99.90
7174;DHT22;3628;48.654;8.932;2022-12-18T13:02:59;0.10;99.90
7174;DHT22;3628;48.654;8.932;2022-12-18T13:05:48;0.10;99.90
7174;DHT22;3628;48.654;8.932;2022-12-18T13:08:29;0.10;99.90
7174;DHT22;3628;48.654;8.932;2022-12-18T13:10:55;0.10;99.90
7174;DHT22;3628;48.654;8.932;2022-12-18T13:13:53;0.10;99.90
7174;DHT22;3628;48.654;8.932;2022-12-18T13:16:22;0.20;99.90
7174;DHT22;3628;48.654;8.932;2022-12-18T13:18:51;0.20;99.90
7174;DHT22;3628;48.654;8.932;2022-12-18T13:21:33;0.10;99.90
7174;DHT22;3628;48.654;8.932;2022-12-18T13:24:20;0.10;99.90
7174;DHT22;3628;48.654;8.932;2022-12-18T13:26:48;0.10;99.90
7174;DHT22;3628;48.654;8.932;2022-12-18T13:29:40;0.10;99.90
7174;DHT22;3628;48.654;8.932;2022-12-18T13:32:24;0.10;99.90
7174;DHT22;3628;48.654;8.932;2022-12-18T13:37:52;0.00;99.90
7174;DHT22;3628;48.654;8.932;2022-12-18T13:40:55;0.00;99.90
7174;DHT22;3628;48.654;8.932;2022-12-18T13:49:05;-0.30;99.90
7174;DHT22;3628;48.654;8.932;2022-12-18T13:51:33;-0.20;99.90
7174;DHT22;3628;48.654;8.932;2022-12-18T13:54:05;-0.20;99.90
7174;DHT22;3628;48.654;8.932;2022-12-18T13:56:33;-0.30;99.90
7174;DHT22;3628;48.654;8.932;2022-12-18T13:59:23;-0.30;99.90
7174;DHT22;3628;48.654;8.932;2022-12-18T14:01:55;-0.40;99.90
7174;DHT22;3628;48.654;8.932;2022-12-18T14:04:29;-0.40;99.90
7174;DHT22;3628;48.654;8.932;2022-12-18T14:07:07;-0.50;99.90
7174;DHT22;3628;48.654;8.932;2022-12-18T14:09:37;-0.50;99.90
7174;DHT22;3628;48.654;8.932;2022-12-18T14:12:05;-0.50;99.90
7174;DHT22;3628;48.654;8.932;2022-12-18T14:14:51;-0.50;99.90
7174;DHT22;3628;48.654;8.932;2022-12-18T14:17:17;-0.60;99.90
7174;DHT22;3628;48.654;8.932;2022-12-18T14:19:47;-0.70;99.90
7174;DHT22;3628;48.654;8.932;2022-12-18T14:22:20;-0.70;99.90
7174;DHT22;3628;48.654;8.932;2022-12-18T14:24:46;-0.70;99.90
7174;DHT22;3628;48.654;8.932;2022-12-18T14:27:20;-0.80;99.90
7174;DHT22;3628;48.654;8.932;2022-12-18T14:29:46;-0.80;99.90
7174;DHT22;3628;48.654;8.932;2022-12-18T14:32:14;-0.90;99.90
7174;DHT22;3628;48.654;8.932;2022-12-18T14:34:49;-0.90;99.90
7174;DHT22;3628;48.654;8.932;2022-12-18T14:37:18;-0.90;99.90
7174;DHT22;3628;48.654;8.932;2022-12-18T14:40:05;-0.90;99.90
7174;DHT22;3628;48.654;8.932;2022-12-18T14:42:31;-0.90;99.90
7174;DHT22;3628;48.654;8.932;2022-12-18T14:47:59;-1.10;99.90
7174;DHT22;3628;48.654;8.932;2022-12-18T14:50:25;-1.30;99.90
7174;DHT22;3628;48.654;8.932;2022-12-18T14:52:51;-1.40;99.90
7174;DHT22;3628;48.654;8.932;2022-12-18T14:55:18;-1.60;99.90
7174;DHT22;3628;48.654;8.932;2022-12-18T14:57:45;-1.70;99.90
7174;DHT22;3628;48.654;8.932;2022-12-18T15:00:22;-1.80;99.90
7174;DHT22;3628;48.654;8.932;2022-12-18T15:02:58;-2.00;99.90
7174;DHT22;3628;48.654;8.932;2022-12-18T15:05:31;-2.10;99.90
7174;DHT22;3628;48.654;8.932;2022-12-18T15:07:59;-2.30;99.90
7174;DHT22;3628;48.654;8.932;2022-12-18T15:10:27;-2.40;99.90
7174;DHT22;3628;48.654;8.932;2022-12-18T15:20:31;-2.80;99.90
7174;DHT22;3628;48.654;8.932;2022-12-18T15:22:57;-2.90;99.90
7174;DHT22;3628;48.654;8.932;2022-12-18T15:25:35;-3.00;99.90
7174;DHT22;3628;48.654;8.932;2022-12-18T15:28:03;-3.20;99.90
7174;DHT22;3628;48.654;8.932;2022-12-18T15:30:29;-3.20;99.90
7174;DHT22;3628;48.654;8.932;2022-12-18T15:33:59;-3.30;99.90
7174;DHT22;3628;48.654;8.932;2022-12-18T15:36:05;-3.50;99.90
7174;DHT22;3628;48.654;8.932;2022-12-18T15:38:33;-3.60;99.90
7174;DHT22;3628;48.654;8.932;2022-12-18T15:40:59;-3.70;99.90
7174;DHT22;3628;48.654;8.932;2022-12-18T15:43:30;-3.70;99.90
7174;DHT22;3628;48.654;8.932;2022-12-18T15:46:13;-3.80;99.90
7174;DHT22;3628;48.654;8.932;2022-12-18T15:48:41;-3.80;99.90
7174;DHT22;3628;48.654;8.932;2022-12-18T15:51:31;-3.90;99.90
7174;DHT22;3628;48.654;8.932;2022-12-18T15:53:59;-3.90;99.90
7174;DHT22;3628;48.654;8.932;2022-12-18T15:56:25;-4.00;99.90
7174;DHT22;3628;48.654;8.932;2022-12-18T15:59:12;-4.00;99.90
7174;DHT22;3628;48.654;8.932;2022-12-18T16:01:39;-4.10;99.90
7174;DHT22;3628;48.654;8.932;2022-12-18T16:04:05;-4.10;99.90
7174;DHT22;3628;48.654;8.932;2022-12-18T16:06:31;-4.20;99.90
7174;DHT22;3628;48.654;8.932;2022-12-18T16:08:56;-4.20;99.90
7174;DHT22;3628;48.654;8.932;2022-12-18T16:11:27;-4.20;99.90
7174;DHT22;3628;48.654;8.932;2022-12-18T16:14:21;-4.10;99.90
7174;DHT22;3628;48.654;8.932;2022-12-18T16:16:49;-4.10;99.90
7174;DHT22;3628;48.654;8.932;2022-12-18T16:19:15;-4.20;99.90
7174;DHT22;3628;48.654;8.932;2022-12-18T16:21:42;-4.30;99.90
7174;DHT22;3628;48.654;8.932;2022-12-18T16:24:21;-4.30;99.90
7174;DHT22;3628;48.654;8.932;2022-12-18T16:26:48;-4.30;99.90
7174;DHT22;3628;48.654;8.932;2022-12-18T16:29:14;-4.30;99.90
7174;DHT22;3628;48.654;8.932;2022-12-18T16:31:39;-4.30;99.90
7174;DHT22;3628;48.654;8.932;2022-12-18T16:34:22;-4.30;99.90
7174;DHT22;3628;48.654;8.932;2022-12-18T16:36:51;-4.30;99.90
7174;DHT22;3628;48.654;8.932;2022-12-18T16:39:17;-4.30;99.90
7174;DHT22;3628;48.654;8.932;2022-12-18T16:41:43;-4.20;99.90
7174;DHT22;3628;48.654;8.932;2022-12-18T16:44:09;-4.20;99.90
7174;DHT22;3628;48.654;8.932;2022-12-18T16:46:35;-4.20;99.90
7174;DHT22;3628;48.654;8.932;2022-12-18T16:49:01;-4.10;99.90
7174;DHT22;3628;48.654;8.932;2022-12-18T16:51:27;-4.10;99.90
7174;DHT22;3628;48.654;8.932;2022-12-18T16:53:54;-4.00;99.90
7174;DHT22;3628;48.654;8.932;2022-12-18T16:56:22;-4.00;99.90
7174;DHT22;3628;48.654;8.932;2022-12-18T16:58:56;-3.90;99.90
7174;DHT22;3628;48.654;8.932;2022-12-18T17:01:23;-3.90;99.90
7174;DHT22;3628;48.654;8.932;2022-12-18T17:04:00;-3.80;99.90
7174;DHT22;3628;48.654;8.932;2022-12-18T17:06:27;-3.80;99.90
7174;DHT22;3628;48.654;8.932;2022-12-18T17:09:04;-3.80;99.90
7174;DHT22;3628;48.654;8.932;2022-12-18T17:11:32;-3.80;99.90
7174;DHT22;3628;48.654;8.932;2022-12-18T17:13:58;-3.70;99.90
7174;DHT22;3628;48.654;8.932;2022-12-18T17:16:24;-3.60;99.90
7174;DHT22;3628;48.654;8.932;2022-12-18T17:18:52;-3.60;99.90
7174;DHT22;3628;48.654;8.932;2022-12-18T17:21:18;-3.50;99.90
7174;DHT22;3628;48.654;8.932;2022-12-18T17:23:44;-3.50;99.90
7174;DHT22;3628;48.654;8.932;2022-12-18T17:26:11;-3.40;99.90
7174;DHT22;3628;48.654;8.932;2022-12-18T17:28:38;-3.40;99.90
7174;DHT22;3628;48.654;8.932;2022-12-18T17:31:19;-3.40;99.90
7174;DHT22;3628;48.654;8.932;2022-12-18T17:33:45;-3.40;99.90
7174;DHT22;3628;48.654;8.932;2022-12-18T17:36:11;-3.30;99.90
7174;DHT22;3628;48.654;8.932;2022-12-18T17:38:37;-3.40;99.90
7174;DHT22;3628;48.654;8.932;2022-12-18T17:41:04;-3.30;99.90
7174;DHT22;3628;48.654;8.932;2022-12-18T17:43:30;-3.30;99.90
7174;DHT22;3628;48.654;8.932;2022-12-18T17:45:56;-3.30;99.90
7174;DHT22;3628;48.654;8.932;2022-12-18T17:48:25;-3.20;99.90